Time;durP1;ratioP1;P1;durP2;ratioP2;P2;SDS_P1;SDS_P2;PMS_P1;PMS_P2;Temp;Humidity;BMP_temperature;BMP_pressure;BME280_temperature;BME280_humidity;BME280_pressure;Samples;Min_cycle;Max_cycle;Signal;HPM_P1;HPM_P2
2022/09/06 00:00:34;;;;;;;6.45;5.15;;;;;;;18.77;88.97;100356.22;5096407;28;20232;-75
2022/09/06 00:03:02;;;;;;;6.60;5.45;;;;;;;18.70;89.69;100355.78;5091681;28;20189;-75
2022/09/06 00:05:30;;;;;;;5.63;4.57;;;;;;;18.64;90.66;100359.00;5084358;28;20197;-76
2022/09/06 00:07:58;;;;;;;5.35;4.85;;;;;;;18.65;90.91;100357.13;5084390;28;20260;-76
2022/09/06 00:10:25;;;;;;;5.40;4.90;;;;;;;18.69;90.88;100353.19;5081366;28;20205;-76
2022/09/06 00:12:52;;;;;;;6.40;4.55;;;;;;;18.63;91.53;100348.22;5078925;28;20204;-76
2022/09/06 00:15:18;;;;;;;6.60;5.10;;;;;;;18.65;91.80;100343.50;5078014;28;20204;-76
2022/09/06 00:17:45;;;;;;;9.20;4.70;;;;;;;18.60;92.59;100337.56;5076960;28;20292;-74
2022/09/06 00:20:13;;;;;;;5.97;5.35;;;;;;;18.49;94.06;100336.53;5076268;28;20265;-74
2022/09/06 00:22:39;;;;;;;9.07;6.82;;;;;;;18.52;93.76;100336.31;5075110;28;20221;-76
2022/09/06 00:25:07;;;;;;;6.13;5.53;;;;;;;18.50;93.63;100338.28;5075217;28;20196;-76
2022/09/06 00:27:34;;;;;;;9.00;5.05;;;;;;;18.51;94.17;100344.59;5075424;28;20212;-76
2022/09/06 00:30:00;;;;;;;6.50;4.93;;;;;;;18.50;94.72;100342.88;5074910;28;20196;-75
2022/09/06 00:32:27;;;;;;;6.93;5.40;;;;;;;18.51;94.90;100344.59;5074477;28;20220;-75
2022/09/06 00:34:54;;;;;;;6.82;5.30;;;;;;;18.52;95.54;100339.03;5075906;28;20291;-75
2022/09/06 00:37:22;;;;;;;6.90;5.03;;;;;;;18.44;96.61;100332.47;5074123;28;20227;-75
2022/09/06 00:39:48;;;;;;;5.40;4.75;;;;;;;18.45;96.00;100336.91;5073837;28;20323;-75
2022/09/06 00:42:15;;;;;;;6.25;5.50;;;;;;;18.60;94.59;100340.28;5074788;28;20222;-76
2022/09/06 00:44:41;;;;;;;5.28;4.60;;;;;;;18.67;94.16;100336.94;5074620;28;20287;-76
2022/09/06 00:47:08;;;;;;;5.40;4.60;;;;;;;18.65;95.02;100330.72;5073625;28;20196;-76
2022/09/06 00:49:39;;;;;;;10.48;5.78;;;;;;;18.62;96.03;100335.56;5074159;28;20197;-75
2022/09/06 00:52:10;;;;;;;9.25;5.20;;;;;;;18.66;95.82;100337.06;5073779;28;20303;-75
2022/09/06 00:54:39;;;;;;;7.78;5.25;;;;;;;18.72;94.48;100345.63;5074510;28;20276;-76
2022/09/06 00:57:07;;;;;;;4.43;4.03;;;;;;;18.62;94.09;100341.88;5074302;28;20239;-75
2022/09/06 00:59:35;;;;;;;6.30;5.35;;;;;;;18.62;94.53;100343.75;5073861;28;20299;-75
2022/09/06 01:02:04;;;;;;;7.90;5.68;;;;;;;18.81;92.39;100335.84;5073760;28;20603;-76
2022/09/06 01:04:32;;;;;;;7.30;5.47;;;;;;;18.98;91.36;100330.91;5073499;28;20212;-76
2022/09/06 01:07:05;;;;;;;7.00;5.20;;;;;;;19.02;90.43;100337.84;5074452;28;20197;-76
2022/09/06 01:09:50;;;;;;;6.85;5.30;;;;;;;19.10;89.37;100343.53;5072916;28;20555;-76
2022/09/06 01:12:37;;;;;;;5.60;5.07;;;;;;;19.16;89.50;100345.75;5073994;28;20212;-75
2022/09/06 01:15:15;;;;;;;6.15;5.55;;;;;;;19.20;89.07;100349.97;5074192;28;20280;-76
2022/09/06 01:17:53;;;;;;;7.93;5.53;;;;;;;19.17;90.37;100353.84;5073057;28;20195;-76
2022/09/06 01:20:58;;;;;;;6.63;5.80;;;;;;;19.08;91.26;100354.56;5073955;28;20685;-76
2022/09/06 01:24:03;;;;;;;8.18;5.35;;;;;;;19.14;91.06;100362.25;5012546;28;20286;-76
2022/09/06 01:27:02;;;;;;;11.85;5.70;;;;;;;19.18;92.83;100362.88;5012155;28;20298;-75
2022/09/06 01:29:36;;;;;;;6.82;5.65;;;;;;;19.19;92.61;100377.41;5011806;28;20278;-75
2022/09/06 01:32:10;;;;;;;7.67;5.47;;;;;;;19.11;92.33;100378.91;5021812;28;20575;-75
2022/09/06 01:34:42;;;;;;;6.87;5.17;;;;;;;19.06;91.75;100372.06;5025436;28;20500;-75
2022/09/06 01:37:12;;;;;;;6.75;4.82;;;;;;;19.06;92.96;100369.34;5015217;28;20476;-75
2022/09/06 01:39:40;;;;;;;7.20;4.80;;;;;;;19.04;92.44;100364.03;5012696;28;20214;-75
2022/09/06 01:42:10;;;;;;;6.25;5.20;;;;;;;19.01;93.20;100371.56;5012933;28;20630;-76
2022/09/06 01:44:40;;;;;;;6.05;5.50;;;;;;;18.99;93.85;100360.78;5009078;28;20915;-75
2022/09/06 01:47:19;;;;;;;6.13;4.70;;;;;;;19.08;92.76;100361.88;5009460;28;20198;-76
2022/09/06 01:49:59;;;;;;;7.75;6.57;;;;;;;19.04;92.91;100360.41;5001826;28;20444;-76
2022/09/06 01:52:35;;;;;;;6.05;5.13;;;;;;;18.99;93.06;100357.19;5009720;28;20313;-76
2022/09/06 01:55:21;;;;;;;7.05;5.25;;;;;;;18.98;93.20;100358.19;5010375;28;20194;-74
2022/09/06 01:58:03;;;;;;;7.70;5.37;;;;;;;19.01;92.97;100385.22;5048996;28;20486;-76
2022/09/06 02:00:39;;;;;;;7.53;4.20;;;;;;;18.86;90.96;100497.34;5072883;28;20482;-77
2022/09/06 02:03:09;;;;;;;8.38;3.95;;;;;;;19.81;77.55;100513.44;5072239;28;20211;-75
2022/09/06 02:05:43;;;;;;;5.07;3.63;;;;;;;20.16;74.57;100444.88;5071574;28;20285;-75
2022/09/06 02:08:14;;;;;;;5.63;3.60;;;;;;;20.55;72.48;100479.88;5074038;28;20185;-73
2022/09/06 02:10:45;;;;;;;8.50;3.87;;;;;;;20.72;71.70;100473.84;5075763;28;20434;-74
2022/09/06 02:13:15;;;;;;;6.33;4.10;;;;;;;20.78;71.37;100466.97;5075400;28;20466;-74
2022/09/06 02:15:49;;;;;;;4.30;3.90;;;;;;;20.99;70.24;100470.56;5076671;28;20454;-74
2022/09/06 02:18:19;;;;;;;5.17;3.40;;;;;;;21.10;69.59;100468.75;5075831;28;20437;-74
2022/09/06 02:20:50;;;;;;;5.03;3.50;;;;;;;21.28;70.03;100461.66;5079964;28;20573;-74
2022/09/06 02:23:20;;;;;;;5.23;3.83;;;;;;;21.42;69.92;100455.81;5078617;28;20522;-75
2022/09/06 02:25:51;;;;;;;5.53;3.50;;;;;;;21.51;70.15;100456.88;5077811;28;20446;-75
2022/09/06 02:28:18;;;;;;;5.13;3.20;;;;;;;21.67;70.25;100460.97;5079256;28;20446;-75
2022/09/06 02:30:50;;;;;;;4.90;3.37;;;;;;;21.76;70.18;100463.72;5076018;28;20461;-73
2022/09/06 02:33:20;;;;;;;13.43;3.80;;;;;;;21.80;70.31;100462.44;5075777;28;20510;-73
2022/09/06 02:35:49;;;;;;;7.37;3.30;;;;;;;21.81;70.91;100452.31;5075257;28;20439;-73
2022/09/06 02:38:17;;;;;;;4.80;3.00;;;;;;;21.77;71.30;100443.50;5075507;28;20841;-74
2022/09/06 02:40:45;;;;;;;5.83;3.33;;;;;;;21.77;71.76;100438.03;5074457;28;21047;-74
2022/09/06 02:43:12;;;;;;;4.90;2.63;;;;;;;21.78;71.95;100417.00;5076008;28;20441;-75
2022/09/06 02:45:39;;;;;;;4.87;2.80;;;;;;;21.73;72.42;100402.81;5076064;28;20447;-75
2022/09/06 02:48:07;;;;;;;6.40;3.00;;;;;;;21.77;72.45;100394.16;5074833;28;21037;-75
2022/09/06 02:50:33;;;;;;;7.57;3.03;;;;;;;21.88;72.67;100381.34;5075682;28;20445;-74
2022/09/06 02:53:03;;;;;;;8.17;2.73;;;;;;;21.86;72.62;100387.84;5075404;28;20445;-74
2022/09/06 02:55:29;;;;;;;6.90;3.13;;;;;;;21.94;72.69;100397.25;5076067;28;20834;-75
2022/09/06 02:57:56;;;;;;;3.00;2.70;;;;;;;21.97;72.72;100397.81;5076265;28;20439;-75
2022/09/06 03:00:22;;;;;;;2.70;2.50;;;;;;;22.04;72.35;100387.13;5075986;28;20565;-74
2022/09/06 06:29:43;;;;;;;7.30;3.85;;;;;;;21.26;85.73;100429.94;6143241;22;20392;-74
2022/09/06 06:32:09;;;;;;;5.80;3.90;;;;;;;21.42;83.90;100428.44;5040955;28;20452;-75
2022/09/06 06:34:36;;;;;;;7.37;4.27;;;;;;;21.56;83.95;100435.38;5042307;28;20441;-73
2022/09/06 06:37:02;;;;;;;7.00;4.17;;;;;;;21.59;83.25;100436.97;5042813;28;20467;-76
2022/09/06 06:39:29;;;;;;;8.03;3.93;;;;;;;21.64;83.83;100426.47;5040520;28;20445;-74
2022/09/06 06:41:55;;;;;;;4.33;3.90;;;;;;;21.92;83.44;100426.66;5042457;28;20483;-73
2022/09/06 06:44:22;;;;;;;16.30;4.67;;;;;;;22.04;81.63;100436.47;5046622;28;20532;-75
2022/09/06 06:46:50;;;;;;;5.73;3.87;;;;;;;22.16;80.96;100431.72;5047611;28;20456;-74
2022/09/06 06:49:17;;;;;;;10.10;4.90;;;;;;;22.49;80.32;100442.28;5047532;28;20440;-74
2022/09/06 06:51:44;;;;;;;8.43;4.13;;;;;;;22.79;78.83;100442.25;5047402;28;20484;-73
2022/09/06 06:54:10;;;;;;;19.13;4.90;;;;;;;22.77;77.20;100434.19;5047040;28;20448;-75
2022/09/06 06:56:39;;;;;;;13.73;4.87;;;;;;;22.79;77.03;100434.88;5043422;28;20444;-74
2022/09/06 06:59:07;;;;;;;11.33;3.97;;;;;;;22.82;76.15;100429.13;5035983;28;20838;-75
2022/09/06 07:01:35;;;;;;;5.20;3.50;;;;;;;22.68;76.86;100432.28;5035650;28;20522;-76
2022/09/06 07:04:04;;;;;;;4.43;3.33;;;;;;;22.68;77.28;100437.78;5038096;28;20495;-73
2022/09/06 07:06:31;;;;;;;6.07;3.77;;;;;;;23.44;73.65;100439.63;5037716;28;20457;-73
2022/09/06 07:08:58;;;;;;;5.27;3.60;;;;;;;24.08;70.57;100446.06;5035950;28;20440;-74
2022/09/06 07:11:25;;;;;;;4.40;3.23;;;;;;;24.57;67.76;100442.94;5036022;28;20460;-73
2022/09/06 07:13:52;;;;;;;3.30;2.83;;;;;;;24.99;65.18;100448.59;5036053;28;20445;-75
2022/09/06 07:16:21;;;;;;;3.70;3.33;;;;;;;25.54;62.59;100450.13;5035722;28;20880;-74
2022/09/06 07:18:51;;;;;;;4.13;3.17;;;;;;;26.27;59.65;100448.63;5035556;28;20445;-75
2022/09/06 07:21:24;;;;;;;3.97;3.23;;;;;;;26.62;57.31;100450.25;5035858;28;20491;-75
2022/09/06 07:23:52;;;;;;;5.70;3.30;;;;;;;26.44;58.67;100455.06;5035213;28;20475;-75
2022/09/06 07:26:21;;;;;;;6.33;3.47;;;;;;;26.80;57.19;100452.84;5036177;28;20527;-73
2022/09/06 07:28:48;;;;;;;3.37;3.07;;;;;;;27.45;54.93;100454.59;5035134;28;20961;-74
2022/09/06 07:31:15;;;;;;;4.70;3.53;;;;;;;27.57;53.64;100455.97;5035415;28;20483;-75
2022/09/06 07:33:41;;;;;;;3.17;2.87;;;;;;;28.23;51.14;100463.94;5038560;28;20482;-73
2022/09/06 07:36:08;;;;;;;7.00;2.73;;;;;;;27.59;53.15;100462.19;5035468;28;20445;-74
2022/09/06 07:38:36;;;;;;;4.10;2.80;;;;;;;27.44;53.82;100458.44;5034121;28;20995;-72
2022/09/06 07:41:05;;;;;;;3.10;2.80;;;;;;;26.33;57.78;100453.50;5034543;28;20484;-73
2022/09/06 07:43:31;;;;;;;3.00;2.70;;;;;;;25.58;61.87;100465.31;5038722;28;20942;-75
2022/09/06 07:46:00;;;;;;;3.83;3.20;;;;;;;25.92;59.88;100467.22;5042191;28;20883;-75
2022/09/06 07:48:28;;;;;;;4.63;3.20;;;;;;;26.30;59.21;100468.50;5038580;28;20532;-73
2022/09/06 07:50:55;;;;;;;4.77;3.10;;;;;;;27.00;57.33;100464.38;5036031;28;20467;-76
2022/09/06 07:53:21;;;;;;;4.73;3.13;;;;;;;26.88;57.10;100471.31;5034655;28;20447;-74
2022/09/06 07:55:49;;;;;;;7.27;2.67;;;;;;;26.33;59.14;100475.56;5034888;28;20471;-75
2022/09/06 07:58:16;;;;;;;2.90;2.70;;;;;;;25.77;61.96;100476.06;5034661;28;20436;-73
2022/09/06 08:00:42;;;;;;;5.23;2.50;;;;;;;25.95;61.66;100478.75;5035565;28;20449;-74
2022/09/06 08:03:09;;;;;;;4.83;2.73;;;;;;;26.58;59.20;100468.22;5034994;28;20506;-74
2022/09/06 08:05:35;;;;;;;3.47;2.20;;;;;;;27.09;56.86;100466.09;5033647;28;20455;-73
2022/09/06 08:08:02;;;;;;;4.30;2.20;;;;;;;27.13;56.33;100461.94;5035736;28;20543;-74
2022/09/06 08:10:29;;;;;;;3.73;2.40;;;;;;;27.24;56.98;100469.88;5041540;28;20488;-73
2022/09/06 08:12:57;;;;;;;3.00;2.60;;;;;;;28.25;52.26;100461.84;5042470;28;20464;-74
2022/09/06 08:15:23;;;;;;;2.80;2.60;;;;;;;28.23;52.23;100456.50;5042989;28;20468;-74
2022/09/06 08:17:51;;;;;;;3.17;2.43;;;;;;;27.73;54.54;100462.47;5039773;28;20682;-73
2022/09/06 08:20:18;;;;;;;3.40;2.30;;;;;;;28.82;50.12;100463.34;5037776;28;20527;-74
2022/09/06 08:22:44;;;;;;;2.30;2.03;;;;;;;29.84;47.36;100462.78;5040653;28;20571;-73
2022/09/06 08:25:11;;;;;;;2.77;1.90;;;;;;;30.47;45.65;100463.94;5039648;28;20472;-76
2022/09/06 08:27:37;;;;;;;5.60;1.90;;;;;;;30.15;44.99;100473.63;5035003;28;20702;-76
2022/09/06 08:30:08;;;;;;;2.17;1.97;;;;;;;29.32;46.93;100470.13;5034949;28;20579;-75
2022/09/06 08:32:35;;;;;;;3.73;2.00;;;;;;;28.97;48.34;100474.44;5034654;28;20978;-75
2022/09/06 08:35:01;;;;;;;2.37;2.10;;;;;;;29.01;48.53;100468.38;5033967;28;20444;-74
2022/09/06 08:37:28;;;;;;;3.43;2.23;;;;;;;29.31;48.44;100473.97;5034054;28;20523;-74
2022/09/06 08:39:55;;;;;;;2.47;1.80;;;;;;;29.24;48.12;100462.78;5035040;28;20433;-74
2022/09/06 08:42:21;;;;;;;2.37;2.10;;;;;;;29.32;47.80;100456.28;5035565;28;20488;-75
2022/09/06 08:44:51;;;;;;;2.27;2.03;;;;;;;30.21;45.89;100461.72;5035613;28;20436;-76
2022/09/06 08:47:21;;;;;;;3.63;2.47;;;;;;;30.11;45.72;100458.41;5036272;28;20459;-75
2022/09/06 08:49:51;;;;;;;5.73;1.90;;;;;;;31.46;43.02;100456.69;5035810;28;20447;-75
2022/09/06 08:52:46;;;;;;;2.20;1.83;;;;;;;31.29;42.64;100458.88;5036602;28;20425;-74
2022/09/06 08:55:25;;;;;;;2.30;2.03;;;;;;;30.31;44.12;100456.72;5035895;28;20455;-74
2022/09/06 08:58:05;;;;;;;2.07;1.87;;;;;;;30.63;44.08;100445.28;5035931;28;20444;-75
2022/09/06 09:00:34;;;;;;;2.63;2.43;;;;;;;32.12;40.87;100445.84;5037131;28;20556;-75
2022/09/06 09:03:07;;;;;;;2.20;2.00;;;;;;;31.86;40.99;100451.28;5044607;28;20481;-76
2022/09/06 09:05:36;;;;;;;3.27;2.20;;;;;;;32.49;40.16;100449.13;5026766;28;20806;-75
2022/09/06 09:08:13;;;;;;;4.43;1.80;;;;;;;33.42;38.21;100448.25;5042323;28;20483;-76
2022/09/06 09:10:42;;;;;;;4.90;2.00;;;;;;;32.19;40.02;100443.94;5038688;28;21037;-74
2022/09/06 09:13:19;;;;;;;5.00;2.03;;;;;;;32.31;39.73;100437.72;5036034;28;20491;-74
2022/09/06 09:15:45;;;;;;;3.23;2.23;;;;;;;33.60;37.71;100434.53;5043032;28;20460;-75
2022/09/06 09:18:25;;;;;;;3.73;2.53;;;;;;;34.34;36.55;100448.16;5055564;28;20469;-73
2022/09/06 09:20:52;;;;;;;2.57;1.97;;;;;;;33.29;37.51;100434.34;5055845;28;20479;-73
2022/09/06 09:23:18;;;;;;;6.13;1.80;;;;;;;34.60;35.63;100433.09;5056868;28;20440;-74
2022/09/06 09:25:46;;;;;;;6.00;1.80;;;;;;;34.53;35.52;100435.97;5056891;28;20432;-75
2022/09/06 09:28:17;;;;;;;1.93;1.60;;;;;;;34.91;34.73;100421.03;5055896;28;20434;-74
2022/09/06 09:30:50;;;;;;;2.57;2.23;;;;;;;33.64;36.59;100419.03;5056154;28;20460;-74
2022/09/06 09:33:27;;;;;;;2.30;1.90;;;;;;;35.46;33.83;100429.56;5045661;28;20953;-75
2022/09/06 09:35:55;;;;;;;2.60;2.20;;;;;;;34.61;34.55;100421.72;5034083;28;20504;-74
2022/09/06 09:38:25;;;;;;;5.10;1.70;;;;;;;34.68;34.39;100421.69;5033064;28;20487;-75
2022/09/06 09:40:54;;;;;;;3.83;2.10;;;;;;;33.13;37.25;100416.13;5032853;28;20463;-76
2022/09/06 09:43:24;;;;;;;3.27;2.33;;;;;;;33.69;36.34;100412.78;5032792;28;20440;-75
2022/09/06 09:46:15;;;;;;;2.67;2.40;;;;;;;33.00;37.48;100405.84;5032279;28;20528;-74
2022/09/06 09:48:48;;;;;;;2.43;2.20;;;;;;;32.85;38.47;100399.63;5034957;28;20425;-74
2022/09/06 09:51:23;;;;;;;3.47;2.47;;;;;;;33.39;37.60;100396.53;5033904;28;20555;-74
2022/09/06 09:53:52;;;;;;;2.50;2.30;;;;;;;35.41;34.57;100392.13;5037064;28;20742;-73
2022/09/06 09:56:27;;;;;;;3.90;2.50;;;;;;;34.83;34.91;100396.16;5037214;28;20440;-75
2022/09/06 09:58:56;;;;;;;3.43;2.40;;;;;;;33.99;36.24;100395.47;5036899;28;20458;-76
2022/09/06 10:01:27;;;;;;;7.07;2.63;;;;;;;33.97;36.35;100398.47;5036446;28;20484;-73
2022/09/06 10:04:02;;;;;;;2.23;1.63;;;;;;;33.79;36.44;100396.41;5037795;28;20807;-75
2022/09/06 10:06:28;;;;;;;2.80;2.50;;;;;;;32.87;38.33;100391.91;5039857;28;20433;-74
2022/09/06 10:08:55;;;;;;;4.40;2.20;;;;;;;33.70;36.47;100394.94;5044906;28;20449;-74
2022/09/06 10:11:38;;;;;;;7.53;2.60;;;;;;;34.20;36.17;100371.91;5047896;28;20496;-74
2022/09/06 10:14:10;;;;;;;5.80;2.60;;;;;;;33.88;36.58;100385.00;5047207;28;20455;-76
2022/09/06 10:16:44;;;;;;;4.70;2.47;;;;;;;32.94;37.99;100378.81;5039513;28;20421;-75
2022/09/06 10:19:29;;;;;;;5.87;2.63;;;;;;;34.43;35.79;100376.91;5040466;28;20447;-74
2022/09/06 10:22:02;;;;;;;2.60;2.27;;;;;;;35.49;33.94;100377.81;5040189;28;20574;-74
2022/09/06 10:24:37;;;;;;;2.77;2.57;;;;;;;34.78;34.78;100370.81;5036646;28;20429;-76
2022/09/06 10:27:05;;;;;;;3.80;2.77;;;;;;;33.89;36.13;100372.72;5036832;28;20487;-74
2022/09/06 10:29:39;;;;;;;2.27;2.07;;;;;;;34.57;35.20;100369.25;5041482;28;20436;-75
2022/09/06 10:32:27;;;;;;;3.20;2.60;;;;;;;35.84;33.62;100374.38;5043821;28;20432;-75
2022/09/06 10:35:06;;;;;;;4.80;2.40;;;;;;;38.05;30.79;100366.50;5044255;28;20435;-75
2022/09/06 10:37:47;;;;;;;2.20;2.00;;;;;;;35.81;33.19;100367.28;5041929;28;20877;-74
2022/09/06 10:40:26;;;;;;;4.67;2.30;;;;;;;34.29;35.31;100362.19;5040262;28;20466;-75
2022/09/06 10:42:55;;;;;;;3.10;2.10;;;;;;;34.27;35.76;100358.75;5040693;28;20519;-76
2022/09/06 10:45:33;;;;;;;3.77;1.90;;;;;;;35.04;34.61;100364.09;5041098;28;20512;-75
2022/09/06 10:48:03;;;;;;;2.20;1.93;;;;;;;36.04;33.18;100362.88;5052501;28;20429;-74
2022/09/06 10:50:41;;;;;;;5.23;1.90;;;;;;;35.72;33.09;100362.25;5051850;28;20472;-74
2022/09/06 10:53:16;;;;;;;2.73;2.10;;;;;;;36.16;32.62;100354.53;5051162;28;20413;-75
2022/09/06 10:55:49;;;;;;;3.27;2.17;;;;;;;35.38;33.30;100353.41;5050091;28;20508;-75
2022/09/06 10:58:22;;;;;;;2.60;1.70;;;;;;;33.77;35.44;100353.88;5050056;28;20429;-73
2022/09/06 11:00:51;;;;;;;2.20;2.00;;;;;;;34.35;35.10;100352.00;5032732;28;20488;-75
2022/09/06 11:03:26;;;;;;;2.23;1.93;;;;;;;34.94;33.86;100341.38;5049192;28;20523;-75
2022/09/06 11:05:58;;;;;;;2.43;1.63;;;;;;;36.96;31.39;100345.63;5048745;28;20480;-75
2022/09/06 11:08:30;;;;;;;2.83;1.70;;;;;;;37.99;29.76;100354.28;5048814;28;20512;-74
2022/09/06 11:11:02;;;;;;;2.07;1.70;;;;;;;36.55;31.06;100332.53;5050435;28;20457;-74
2022/09/06 11:13:29;;;;;;;2.73;1.70;;;;;;;37.18;30.35;100340.25;5042589;28;20437;-75
2022/09/06 11:16:05;;;;;;;3.10;2.00;;;;;;;38.59;28.64;100341.63;5036611;28;20436;-76
2022/09/06 11:18:37;;;;;;;2.03;1.80;;;;;;;39.98;26.98;100339.59;5036222;28;20432;-74
2022/09/06 11:21:32;;;;;;;2.40;1.60;;;;;;;41.42;25.52;100338.72;5037149;28;20471;-76
2022/09/06 11:24:11;;;;;;;2.00;1.67;;;;;;;39.31;27.67;100334.25;4975538;28;20450;-75
2022/09/06 11:26:43;;;;;;;2.53;1.40;;;;;;;39.24;27.30;100327.97;4975312;28;20439;-75
2022/09/06 11:29:19;;;;;;;5.50;1.60;;;;;;;39.68;27.23;100333.59;4975102;28;20443;-74
2022/09/06 11:31:52;;;;;;;1.60;1.50;;;;;;;37.65;29.02;100326.13;4976455;28;20547;-74
2022/09/06 11:34:24;;;;;;;2.87;1.70;;;;;;;37.39;29.65;100313.47;4976416;28;20451;-75
2022/09/06 11:36:55;;;;;;;1.97;1.70;;;;;;;38.34;28.88;100323.16;4976321;28;20463;-75
2022/09/06 11:39:29;;;;;;;2.20;2.00;;;;;;;38.23;28.75;100312.84;4976098;28;20515;-76
2022/09/06 11:41:56;;;;;;;2.67;1.90;;;;;;;40.75;26.28;100308.38;4979153;28;20483;-77
2022/09/06 11:44:52;;;;;;;4.00;1.80;;;;;;;40.01;26.70;100305.22;4979407;28;20442;-76
2022/09/06 11:47:39;;;;;;;2.80;1.60;;;;;;;38.10;29.19;100299.97;4980527;28;20472;-76
2022/09/06 11:50:23;;;;;;;3.40;1.57;;;;;;;36.59;30.35;100302.88;4980613;28;20526;-75
2022/09/06 11:53:01;;;;;;;3.63;1.97;;;;;;;36.32;31.09;100304.22;4981604;28;20435;-75
2022/09/06 11:55:37;;;;;;;1.97;1.80;;;;;;;35.82;31.91;100298.97;4982569;28;20435;-75
2022/09/06 11:58:08;;;;;;;2.50;2.00;;;;;;;36.04;31.15;100299.25;4980924;28;20436;-75
2022/09/06 12:00:35;;;;;;;2.53;2.00;;;;;;;36.07;31.26;100300.75;4996671;28;20456;-73
2022/09/06 12:03:02;;;;;;;2.20;2.00;;;;;;;37.41;29.64;100296.38;5041121;28;20483;-75
2022/09/06 12:05:30;;;;;;;2.47;1.73;;;;;;;38.08;28.69;100287.28;5040682;28;20437;-74
2022/09/06 12:08:40;;;;;;;2.60;2.00;;;;;;;38.12;28.95;100294.09;5040908;28;20459;-74
2022/09/06 12:14:02;;;;;;;3.20;1.95;;;;;;;37.72;29.25;100295.03;5097566;27;1225711;-76
2022/09/06 12:17:07;;;;;;;2.50;2.30;;;;;;;36.02;30.95;100290.25;5117211;28;20207;-75
2022/09/06 12:19:44;;;;;;;4.00;2.03;;;;;;;37.46;29.41;100296.47;5118614;28;20504;-75
2022/09/06 12:22:52;;;;;;;3.20;1.87;;;;;;;39.53;27.36;100287.22;5098998;28;20520;-75
2022/09/06 12:25:34;;;;;;;2.20;1.67;;;;;;;40.55;26.31;100286.53;5104511;28;20438;-74
2022/09/06 12:28:02;;;;;;;4.27;1.60;;;;;;;42.28;24.41;100291.16;5098680;28;20442;-74
